Time;durP1;ratioP1;P1;durP2;ratioP2;P2;SDS_P1;SDS_P2;PMS_P1;PMS_P2;Temp;Humidity;BMP_temperature;BMP_pressure;BME280_temperature;BME280_humidity;BME280_pressure;Samples;Min_cycle;Max_cycle;Signal;HPM_P1;HPM_P2
2021/08/10 00:01:32;;;;;;;7.63;2.03;;;;;;;18.38;64.93;101511.53;5059903;28;20036;-74
2021/08/10 00:03:57;;;;;;;7.57;2.33;;;;;;;18.82;63.21;101510.53;5059294;28;20067;-74
2021/08/10 00:06:23;;;;;;;12.25;2.50;;;;;;;18.92;64.17;101505.50;5065260;28;20044;-74
2021/08/10 00:08:48;;;;;;;5.00;2.30;;;;;;;18.76;64.47;101505.59;5086854;28;20089;-74
2021/08/10 00:11:14;;;;;;;9.90;2.20;;;;;;;18.86;63.59;101498.75;5074111;28;20235;-74
2021/08/10 00:13:39;;;;;;;7.22;2.33;;;;;;;18.97;64.26;101508.66;5046213;28;20054;-74
2021/08/10 00:16:05;;;;;;;4.93;2.25;;;;;;;18.17;65.50;101505.75;5085664;28;20048;-74
2021/08/10 00:18:30;;;;;;;12.18;2.50;;;;;;;19.04;64.20;101511.78;5071197;28;20032;-74
2021/08/10 00:20:56;;;;;;;7.95;2.10;;;;;;;18.57;64.97;101511.22;5086958;28;20362;-74
2021/08/10 00:23:21;;;;;;;8.07;2.20;;;;;;;17.78;66.63;101501.94;5041633;28;20032;-74
2021/08/10 00:25:47;;;;;;;6.57;2.42;;;;;;;17.93;66.72;101508.13;5090184;28;20032;-74
2021/08/10 00:28:13;;;;;;;7.72;2.55;;;;;;;18.31;64.58;101507.56;5090596;28;20020;-74
2021/08/10 00:30:41;;;;;;;5.70;2.45;;;;;;;19.04;63.86;101499.34;5088891;28;20040;-74
2021/08/10 00:33:06;;;;;;;6.43;1.80;;;;;;;18.42;64.55;101500.63;5046044;28;20035;-75
2021/08/10 00:35:32;;;;;;;5.93;2.17;;;;;;;18.99;62.94;101501.44;5072824;28;20040;-74
2021/08/10 00:37:57;;;;;;;5.43;2.13;;;;;;;18.75;64.46;101499.41;5055874;28;20101;-75
2021/08/10 00:40:26;;;;;;;6.63;2.28;;;;;;;18.61;64.31;101499.47;5065563;28;20020;-75
2021/08/10 00:42:51;;;;;;;6.05;2.50;;;;;;;18.22;66.54;101495.72;5057161;28;20324;-75
2021/08/10 00:45:17;;;;;;;10.48;2.63;;;;;;;17.34;67.38;101500.16;5073095;28;20047;-75
2021/08/10 00:47:42;;;;;;;7.07;2.10;;;;;;;18.57;65.46;101495.28;5055050;28;20196;-75
2021/08/10 00:50:08;;;;;;;8.75;2.65;;;;;;;18.77;64.31;101494.88;5075146;28;20039;-75
2021/08/10 00:52:34;;;;;;;8.65;2.22;;;;;;;18.25;64.35;101502.66;5046817;28;20303;-75
2021/08/10 00:55:01;;;;;;;9.93;2.10;;;;;;;17.33;68.23;101496.63;5093284;28;20053;-75
2021/08/10 00:57:26;;;;;;;5.05;2.00;;;;;;;17.82;66.21;101504.31;5047024;28;20028;-75
2021/08/10 00:59:52;;;;;;;9.00;2.85;;;;;;;18.21;66.73;101502.00;5063250;28;20382;-75
2021/08/10 01:04:55;;;;;;;8.38;2.47;;;;;;;17.50;67.42;101493.00;5082603;28;20103;-75
2021/08/10 01:07:38;;;;;;;5.75;2.40;;;;;;;18.57;65.49;101490.00;5082781;28;20036;-75
2021/08/10 01:10:45;;;;;;;8.13;2.10;;;;;;;17.99;67.81;101494.50;5032968;28;20044;-75
2021/08/10 01:13:23;;;;;;;6.30;2.70;;;;;;;18.35;64.77;101498.47;5069143;28;20100;-74
2021/08/10 01:16:23;;;;;;;8.88;2.63;;;;;;;18.55;65.48;101498.03;5052330;28;20054;-74
2021/08/10 01:19:04;;;;;;;5.63;2.50;;;;;;;19.18;62.69;101501.09;5076178;28;20074;-75
2021/08/10 01:21:33;;;;;;;6.32;1.90;;;;;;;19.98;60.59;101497.50;5061264;28;20087;-76
2021/08/10 01:24:25;;;;;;;7.28;1.85;;;;;;;20.35;60.19;101494.88;5096236;28;20103;-75
2021/08/10 01:27:02;;;;;;;8.55;2.58;;;;;;;18.87;64.70;101494.31;5058931;28;20040;-75
2021/08/10 01:29:38;;;;;;;6.45;2.40;;;;;;;17.75;67.00;101508.25;5081969;28;20261;-76
2021/08/10 01:32:04;;;;;;;9.30;2.95;;;;;;;19.03;63.99;101495.00;5050551;28;20050;-75
2021/08/10 01:34:37;;;;;;;7.38;2.15;;;;;;;18.46;64.61;101495.97;5045117;28;20304;-75
2021/08/10 01:37:05;;;;;;;11.77;3.40;;;;;;;17.83;66.92;101499.88;5075709;28;20035;-75
2021/08/10 01:39:31;;;;;;;7.87;2.47;;;;;;;17.51;69.81;101496.50;5068506;28;20054;-75
2021/08/10 01:41:57;;;;;;;7.63;3.00;;;;;;;17.08;70.51;101495.44;5065148;28;20120;-75
2021/08/10 01:44:26;;;;;;;9.50;2.28;;;;;;;18.15;67.46;101495.25;5061157;28;20020;-75
2021/08/10 01:46:51;;;;;;;10.43;2.65;;;;;;;17.86;68.36;101493.56;5102480;28;20141;-75
2021/08/10 01:49:17;;;;;;;12.10;2.85;;;;;;;17.16;69.99;101491.50;5085018;28;20015;-75
2021/08/10 01:51:42;;;;;;;9.38;2.67;;;;;;;17.49;68.62;101490.47;5086619;28;20027;-76
2021/08/10 01:54:09;;;;;;;6.68;2.53;;;;;;;18.07;67.98;101481.66;5065435;28;20021;-75
2021/08/10 01:56:36;;;;;;;9.40;3.15;;;;;;;18.44;66.64;101481.97;5074009;28;20044;-75
2021/08/10 01:59:02;;;;;;;5.22;2.00;;;;;;;18.13;66.11;101483.06;5051675;28;20254;-75
2021/08/10 02:01:28;;;;;;;8.73;2.80;;;;;;;17.36;69.95;101498.28;5045429;28;20024;-75
2021/08/10 02:03:54;;;;;;;9.93;2.75;;;;;;;17.72;68.77;101497.88;5050249;28;20035;-75
2021/08/10 02:06:19;;;;;;;11.02;2.75;;;;;;;17.62;68.74;101497.56;5082236;28;20215;-75
2021/08/10 02:08:45;;;;;;;7.82;2.75;;;;;;;17.75;68.12;101497.66;5082870;28;20027;-75
2021/08/10 02:11:11;;;;;;;8.40;2.65;;;;;;;17.09;70.05;101501.56;5076480;28;20359;-75
2021/08/10 02:13:37;;;;;;;5.75;2.45;;;;;;;17.74;68.08;101501.28;5046750;28;20154;-74
2021/08/10 02:16:02;;;;;;;7.13;2.53;;;;;;;18.05;68.12;101490.66;5063914;28;20032;-74
2021/08/10 02:18:28;;;;;;;9.27;2.80;;;;;;;17.50;68.59;101497.44;5045455;28;20329;-74
2021/08/10 02:20:54;;;;;;;5.85;2.83;;;;;;;17.07;70.14;101504.31;5049073;28;20245;-74
2021/08/10 02:23:19;;;;;;;8.25;2.60;;;;;;;17.42;70.45;101505.84;5062080;28;20040;-74
2021/08/10 02:25:45;;;;;;;5.35;2.42;;;;;;;18.45;66.32;101504.91;5077693;28;20032;-74
2021/08/10 02:28:10;;;;;;;7.18;3.25;;;;;;;17.44;69.12;101504.81;5079177;28;20029;-74
2021/08/10 02:30:36;;;;;;;9.15;2.90;;;;;;;18.79;64.73;101505.38;5061383;28;20028;-74
2021/08/10 02:33:05;;;;;;;5.57;2.33;;;;;;;18.45;64.66;101507.56;5042448;28;20071;-74
2021/08/10 02:35:31;;;;;;;6.03;2.58;;;;;;;17.90;67.52;101508.31;5043482;28;20028;-74
2021/08/10 02:38:06;;;;;;;9.82;2.90;;;;;;;17.19;70.45;101502.75;5059237;28;20056;-74
2021/08/10 02:40:32;;;;;;;12.25;3.30;;;;;;;18.17;66.19;101509.28;5043260;28;20032;-74
2021/08/10 02:42:58;;;;;;;8.38;2.80;;;;;;;17.72;67.64;101508.47;5061882;28;20024;-74
2021/08/10 02:45:23;;;;;;;7.05;2.70;;;;;;;17.61;68.46;101506.47;5061947;28;20035;-74
2021/08/10 02:47:53;;;;;;;6.18;2.17;;;;;;;17.67;68.37;101510.53;5077534;28;20063;-74
2021/08/10 02:50:19;;;;;;;11.73;3.15;;;;;;;17.25;69.97;101517.44;5062197;28;20020;-73
2021/08/10 02:52:44;;;;;;;6.75;2.40;;;;;;;18.12;67.15;101508.72;5061343;28;20115;-74
2021/08/10 02:55:10;;;;;;;7.68;2.78;;;;;;;17.18;70.09;101506.34;5061294;28;20035;-74
2021/08/10 02:58:11;;;;;;;10.35;2.70;;;;;;;17.74;67.74;101514.53;5045591;28;20060;-73
2021/08/10 03:00:41;;;;;;;5.32;2.10;;;;;;;18.17;66.24;101505.75;5017255;28;20095;-73
2021/08/10 03:03:12;;;;;;;11.55;3.67;;;;;;;17.31;68.81;101518.88;5028500;28;20314;-73
2021/08/10 03:05:37;;;;;;;4.70;1.90;;;;;;;17.77;67.80;101508.19;5037130;28;20021;-73
2021/08/10 03:08:05;;;;;;;12.32;3.47;;;;;;;16.96;71.14;101509.38;5065528;28;20255;-73
2021/08/10 03:10:33;;;;;;;5.23;2.80;;;;;;;17.99;67.57;101507.75;5066164;28;20036;-73
2021/08/10 03:13:00;;;;;;;7.32;3.38;;;;;;;18.10;66.92;101505.31;5048396;28;20024;-73
2021/08/10 03:15:27;;;;;;;8.60;2.78;;;;;;;18.35;66.23;101503.78;5046106;28;20027;-73
2021/08/10 03:17:56;;;;;;;6.00;2.63;;;;;;;18.20;66.67;101506.44;5046131;28;20071;-73
2021/08/10 03:20:22;;;;;;;7.28;3.38;;;;;;;17.46;68.88;101507.34;5080202;28;20112;-73
2021/08/10 03:22:47;;;;;;;11.32;3.67;;;;;;;17.71;68.14;101512.06;5066014;28;20025;-73
2021/08/10 03:25:14;;;;;;;9.00;3.90;;;;;;;17.17;70.18;101512.59;5067793;28;20048;-73
2021/08/10 03:27:40;;;;;;;4.72;2.33;;;;;;;17.74;67.88;101517.16;5066011;28;20204;-73
2021/08/10 03:30:05;;;;;;;5.43;2.20;;;;;;;18.22;66.47;101514.28;5045560;28;20027;-73
2021/08/10 03:32:32;;;;;;;5.88;3.60;;;;;;;17.21;69.93;101519.41;5062315;28;20694;-73
2021/08/10 03:34:58;;;;;;;10.30;3.25;;;;;;;17.81;68.40;101525.63;5065851;28;20080;-73
2021/08/10 03:37:23;;;;;;;6.93;3.22;;;;;;;17.41;69.77;101512.94;5081863;28;20070;-73
2021/08/10 03:39:49;;;;;;;8.68;4.45;;;;;;;16.93;71.21;101524.56;5062770;28;20032;-73
2021/08/10 03:42:14;;;;;;;6.30;3.25;;;;;;;17.29;70.38;101523.41;5063055;28;20036;-73
2021/08/10 03:44:42;;;;;;;5.82;2.60;;;;;;;18.01;67.18;101524.44;5045766;28;20204;-73
2021/08/10 03:47:16;;;;;;;8.27;2.83;;;;;;;17.88;68.00;101519.00;5045987;28;20028;-73
2021/08/10 03:49:41;;;;;;;8.55;3.38;;;;;;;17.71;68.15;101517.34;5063532;28;20378;-73
2021/08/10 03:52:08;;;;;;;6.00;3.15;;;;;;;17.83;67.69;101524.56;5069741;28;20103;-73
2021/08/10 03:54:35;;;;;;;5.00;2.38;;;;;;;17.84;68.31;101518.34;5063215;28;20028;-74
2021/08/10 03:57:00;;;;;;;9.05;2.70;;;;;;;17.93;67.44;101524.03;5066590;28;20033;-73
2021/08/10 03:59:25;;;;;;;8.50;3.50;;;;;;;17.14;70.20;101520.69;5028150;28;20031;-73
2021/08/10 04:01:52;;;;;;;10.57;3.75;;;;;;;17.08;70.71;101521.91;5049306;28;20323;-73
2021/08/10 04:04:17;;;;;;;8.73;2.83;;;;;;;18.35;66.02;101524.97;5045175;28;20037;-73
2021/08/10 04:06:43;;;;;;;8.45;3.85;;;;;;;17.43;69.52;101519.00;5045478;28;20340;-73
2021/08/10 04:09:08;;;;;;;7.55;2.80;;;;;;;17.32;70.06;101520.53;5045151;28;20036;-73
2021/08/10 04:11:34;;;;;;;6.40;3.50;;;;;;;17.34;69.88;101519.53;5061457;28;20028;-73
2021/08/10 04:14:01;;;;;;;11.73;4.43;;;;;;;16.88;71.19;101524.81;5045136;28;20036;-73
2021/08/10 04:16:26;;;;;;;12.80;4.38;;;;;;;16.77;71.43;101532.47;5032445;28;20301;-73
2021/08/10 04:18:52;;;;;;;6.47;3.90;;;;;;;17.18;70.59;101516.06;5042628;28;20037;-73
2021/08/10 04:21:24;;;;;;;7.93;3.72;;;;;;;17.61;68.65;101517.06;5054001;28;20025;-73
2021/08/10 04:23:50;;;;;;;7.82;3.83;;;;;;;17.13;70.33;101513.69;5043484;28;20285;-73
2021/08/10 04:26:15;;;;;;;8.23;3.60;;;;;;;16.59;72.74;101521.97;5042612;28;20037;-73
2021/08/10 04:28:41;;;;;;;11.35;4.47;;;;;;;16.67;72.45;101532.97;5060502;28;20024;-73
2021/08/10 04:31:06;;;;;;;9.50;3.80;;;;;;;17.57;68.69;101528.78;5073664;28;20488;-73
2021/08/10 04:33:32;;;;;;;9.82;3.50;;;;;;;16.73;71.51;101536.22;5078884;28;20036;-73
2021/08/10 04:35:57;;;;;;;10.82;3.83;;;;;;;17.84;67.84;101533.34;5080008;28;20032;-73
2021/08/10 04:38:23;;;;;;;6.90;3.03;;;;;;;17.15;69.88;101538.25;5081677;28;20062;-73
2021/08/10 04:40:48;;;;;;;8.63;3.25;;;;;;;18.09;66.92;101524.81;5081424;28;20048;-73
2021/08/10 04:43:13;;;;;;;7.40;4.18;;;;;;;16.82;70.93;101525.97;5080362;28;20040;-73
2021/08/10 04:45:39;;;;;;;10.75;5.25;;;;;;;16.51;72.63;101535.59;5065929;28;20107;-73
2021/08/10 04:48:04;;;;;;;9.98;3.28;;;;;;;18.81;64.59;101527.41;5074367;28;20105;-73
2021/08/10 04:50:30;;;;;;;3.33;2.25;;;;;;;19.00;63.71;101529.72;5055844;28;20092;-73
2021/08/10 04:52:55;;;;;;;3.35;2.42;;;;;;;20.06;60.23;101527.88;5049957;28;20043;-74
2021/08/10 04:55:21;;;;;;;7.68;2.70;;;;;;;19.70;61.07;101528.59;5066498;28;20090;-74
2021/08/10 04:57:46;;;;;;;6.20;3.55;;;;;;;19.77;61.20;101529.91;5078318;28;20045;-74
2021/08/10 05:00:12;;;;;;;7.57;2.33;;;;;;;20.95;57.23;101536.66;5078540;28;20032;-74
2021/08/10 05:02:38;;;;;;;3.85;2.15;;;;;;;20.96;57.16;101541.03;5078798;28;20108;-74
2021/08/10 05:05:04;;;;;;;6.05;3.35;;;;;;;21.15;56.56;101547.66;5071950;28;20060;-74
2021/08/10 05:07:30;;;;;;;2.50;2.08;;;;;;;20.94;57.31;101552.75;5062809;28;20036;-74
2021/08/10 05:09:55;;;;;;;5.57;2.20;;;;;;;21.14;57.04;101538.81;5077957;28;20412;-74
2021/08/10 05:12:20;;;;;;;4.57;2.38;;;;;;;21.41;55.66;101538.56;5077729;28;20028;-74
2021/08/10 05:14:46;;;;;;;5.25;2.65;;;;;;;21.03;56.88;101542.28;5080314;28;20250;-74
2021/08/10 05:17:13;;;;;;;4.32;1.83;;;;;;;21.31;56.00;101539.38;5075965;28;20038;-74
2021/08/10 05:19:39;;;;;;;10.27;3.15;;;;;;;21.11;56.65;101541.72;5061809;28;20039;-74
2021/08/10 05:22:04;;;;;;;6.97;3.05;;;;;;;20.20;59.14;101542.03;5076037;28;20037;-74
2021/08/10 05:24:30;;;;;;;2.17;1.50;;;;;;;20.19;59.37;101540.34;5074755;28;20363;-74
2021/08/10 05:26:55;;;;;;;2.53;2.05;;;;;;;19.63;61.21;101530.84;5077980;28;20038;-74
2021/08/10 05:29:20;;;;;;;2.55;1.77;;;;;;;20.24;59.33;101540.88;5078963;28;20335;-74
2021/08/10 05:31:46;;;;;;;3.72;1.70;;;;;;;20.01;59.80;101534.50;5061840;28;20036;-74
2021/08/10 05:34:11;;;;;;;10.48;4.13;;;;;;;20.02;60.81;101538.88;5076572;28;20028;-74
2021/08/10 05:36:37;;;;;;;3.72;2.30;;;;;;;20.80;57.78;101538.63;5059539;28;20032;-74
2021/08/10 05:39:03;;;;;;;6.55;3.78;;;;;;;20.68;58.48;101536.88;5077237;28;20029;-74
2021/08/10 05:41:29;;;;;;;8.75;2.25;;;;;;;21.09;56.62;101539.16;5077904;28;20024;-74
2021/08/10 05:43:54;;;;;;;6.85;3.00;;;;;;;20.88;58.17;101556.72;5076730;28;20039;-74
2021/08/10 05:46:19;;;;;;;8.45;3.92;;;;;;;20.64;59.09;101556.69;5075322;28;20221;-75
2021/08/10 05:48:45;;;;;;;5.78;2.53;;;;;;;21.23;56.12;101554.13;5081637;28;20065;-74
2021/08/10 05:51:10;;;;;;;5.68;1.75;;;;;;;21.15;56.69;101563.63;5058590;28;20028;-74
2021/08/10 05:53:36;;;;;;;3.58;1.85;;;;;;;21.53;55.54;101554.63;5074533;28;20081;-74
2021/08/10 05:56:01;;;;;;;6.85;2.70;;;;;;;21.49;55.78;101556.66;5044315;28;20236;-75
2021/08/10 05:58:27;;;;;;;4.13;2.33;;;;;;;21.13;56.68;101547.78;5072519;28;20064;-74
2021/08/10 06:00:52;;;;;;;2.95;1.70;;;;;;;21.29;56.01;101547.47;5077214;28;20405;-74
2021/08/10 06:03:17;;;;;;;2.63;1.73;;;;;;;21.61;55.49;101550.41;5048780;28;20041;-74
2021/08/10 06:05:43;;;;;;;3.88;1.65;;;;;;;21.75;55.14;101552.00;5035746;28;20332;-74
2021/08/10 06:08:09;;;;;;;7.05;3.20;;;;;;;21.25;56.46;101560.19;5071161;28;20033;-74
2021/08/10 06:10:34;;;;;;;5.65;3.45;;;;;;;21.24;56.81;101553.13;5040823;28;20044;-74
2021/08/10 06:13:01;;;;;;;2.35;2.00;;;;;;;21.62;55.35;101554.75;5058661;28;20111;-75
2021/08/10 06:15:26;;;;;;;14.82;6.47;;;;;;;21.39;56.56;101552.97;5078244;28;20207;-74
2021/08/10 06:17:52;;;;;;;9.20;4.32;;;;;;;21.03;58.10;101546.78;5067995;28;20448;-74
2021/08/10 06:20:18;;;;;;;6.28;2.97;;;;;;;21.65;56.48;101551.88;5062901;28;20033;-74
2021/08/10 06:22:43;;;;;;;6.25;2.03;;;;;;;21.44;56.97;101550.81;5066130;28;20214;-75
2021/08/10 06:25:09;;;;;;;4.93;2.30;;;;;;;21.10;57.25;101558.63;5074773;28;20044;-74
2021/08/10 06:27:35;;;;;;;2.88;2.40;;;;;;;20.86;57.77;101558.63;5075929;28;20360;-74
2021/08/10 06:30:00;;;;;;;9.57;3.85;;;;;;;21.17;58.45;101559.88;5073174;28;20036;-74
2021/08/10 06:32:26;;;;;;;1.75;1.40;;;;;;;21.25;56.88;101557.50;5070715;28;20100;-74
2021/08/10 06:34:51;;;;;;;2.38;1.67;;;;;;;21.27;56.69;101563.56;5058093;28;20034;-75
2021/08/10 06:37:16;;;;;;;2.63;1.88;;;;;;;21.22;56.69;101563.06;5075075;28;20029;-74
2021/08/10 06:39:42;;;;;;;4.18;2.10;;;;;;;21.02;58.99;101561.03;5073322;28;20236;-74
2021/08/10 06:42:07;;;;;;;4.65;1.90;;;;;;;21.14;57.21;101551.28;5075687;28;20309;-74
2021/08/10 06:44:33;;;;;;;6.68;2.10;;;;;;;21.19;56.98;101551.78;5073154;28;20049;-74
2021/08/10 06:46:59;;;;;;;4.22;2.60;;;;;;;20.93;58.22;101556.38;5041406;28;20260;-74
2021/08/10 06:49:26;;;;;;;3.17;2.20;;;;;;;21.08;57.61;101547.25;5054879;28;20017;-75
2021/08/10 06:51:51;;;;;;;2.08;1.80;;;;;;;21.27;57.26;101547.59;5075549;28;20067;-75
2021/08/10 06:54:17;;;;;;;9.75;3.33;;;;;;;21.21;58.20;101557.84;5072164;28;20036;-75
2021/08/10 06:56:42;;;;;;;4.82;3.10;;;;;;;21.17;58.65;101551.91;5058974;28;20151;-75
2021/08/10 06:59:07;;;;;;;4.38;2.50;;;;;;;21.28;57.29;101551.09;5042984;28;20035;-75
2021/08/10 07:01:33;;;;;;;5.07;2.40;;;;;;;21.36;56.86;101561.19;5068148;28;20065;-75
2021/08/10 07:03:58;;;;;;;3.95;2.30;;;;;;;21.40;56.76;101552.84;5081823;28;20032;-75
2021/08/10 07:06:24;;;;;;;6.75;4.15;;;;;;;20.95;60.31;101557.13;5079059;28;20063;-75
2021/08/10 07:08:53;;;;;;;4.03;2.67;;;;;;;21.22;58.17;101559.56;5074179;28;20028;-75
2021/08/10 07:11:19;;;;;;;4.75;2.33;;;;;;;21.26;57.74;101561.88;5035863;28;20025;-74
2021/08/10 07:13:45;;;;;;;3.25;2.35;;;;;;;21.33;57.31;101562.25;5076027;28;20328;-74
2021/08/10 07:16:10;;;;;;;8.45;2.70;;;;;;;21.28;57.29;101561.75;5058624;28;20028;-74
2021/08/10 07:18:37;;;;;;;4.70;2.60;;;;;;;21.37;57.05;101574.38;5054743;28;20094;-74
2021/08/10 07:21:02;;;;;;;5.72;3.47;;;;;;;20.94;60.67;101568.72;5040176;28;20033;-74
2021/08/10 07:23:28;;;;;;;19.33;9.10;;;;;;;20.51;60.24;101565.50;5061943;28;20048;-74
2021/08/10 07:25:53;;;;;;;24.05;14.48;;;;;;;20.98;58.52;101568.41;5051524;28;20031;-74
2021/08/10 07:28:19;;;;;;;35.42;24.05;;;;;;;21.22;57.86;101564.88;5056434;28;20050;-74
2021/08/10 07:30:44;;;;;;;4.13;3.00;;;;;;;21.50;56.74;101562.84;5069510;28;20065;-74
2021/08/10 07:33:09;;;;;;;7.38;4.38;;;;;;;21.54;57.95;101565.16;5091876;28;20036;-74
2021/08/10 07:35:35;;;;;;;6.55;4.53;;;;;;;21.19;58.32;101565.97;5064944;28;20028;-74
2021/08/10 07:38:00;;;;;;;26.42;18.42;;;;;;;21.64;56.39;101568.81;5071109;28;20061;-74
2021/08/10 07:40:26;;;;;;;8.55;3.13;;;;;;;21.19;57.64;101563.31;5075556;28;20050;-74
2021/08/10 07:42:51;;;;;;;16.23;10.85;;;;;;;20.99;58.60;101577.22;5092864;28;20063;-74
2021/08/10 07:45:16;;;;;;;13.43;11.98;;;;;;;21.01;58.58;101575.28;5079164;28;20072;-74
2021/08/10 07:47:42;;;;;;;7.43;3.35;;;;;;;21.25;58.47;101573.50;5094808;28;20338;-74
2021/08/10 07:50:08;;;;;;;5.97;3.08;;;;;;;21.63;56.31;101576.97;5078522;28;20088;-74
2021/08/10 07:52:33;;;;;;;6.50;3.67;;;;;;;21.03;58.67;101573.41;5063763;28;20103;-74
2021/08/10 07:54:59;;;;;;;5.93;3.00;;;;;;;21.21;57.73;101573.81;5055289;28;20040;-74
2021/08/10 07:57:24;;;;;;;6.75;3.47;;;;;;;20.74;59.83;101567.50;5096451;28;20048;-74
2021/08/10 07:59:50;;;;;;;9.13;5.25;;;;;;;21.32;57.29;101570.38;5052957;28;20032;-74
2021/08/10 08:02:15;;;;;;;5.60;3.13;;;;;;;21.25;57.98;101576.16;5065533;28;20123;-74
2021/08/10 08:04:41;;;;;;;6.55;3.58;;;;;;;21.06;58.32;101581.97;5071554;28;20050;-74
2021/08/10 08:07:06;;;;;;;7.72;3.88;;;;;;;20.11;61.88;101573.63;5067728;28;20176;-74
2021/08/10 08:09:32;;;;;;;6.45;3.25;;;;;;;20.99;58.74;101571.91;5082434;28;20027;-74
2021/08/10 08:11:57;;;;;;;16.00;3.38;;;;;;;21.52;59.21;101575.09;5055754;28;20041;-73
2021/08/10 08:14:23;;;;;;;9.15;2.58;;;;;;;21.27;58.52;101571.56;5080945;28;20028;-74
2021/08/10 08:16:48;;;;;;;10.85;2.65;;;;;;;21.26;58.82;101583.16;5077638;28;20054;-73
2021/08/10 08:19:14;;;;;;;23.00;3.70;;;;;;;21.19;59.13;101589.06;5049340;28;20033;-70
2021/08/10 08:21:39;;;;;;;7.40;2.30;;;;;;;20.98;59.83;101584.38;5092521;28;20103;-70
2021/08/10 08:24:05;;;;;;;26.50;4.30;;;;;;;21.07;59.11;101575.72;5093671;28;20268;-70
2021/08/10 08:26:30;;;;;;;8.98;3.40;;;;;;;21.04;59.56;101589.22;5097036;28;20405;-70
2021/08/10 08:28:56;;;;;;;13.95;3.10;;;;;;;21.07;59.16;101583.69;5094940;28;20083;-71
2021/08/10 08:31:21;;;;;;;13.15;3.80;;;;;;;20.71;60.75;101582.72;5095340;28;20321;-71
2021/08/10 08:33:47;;;;;;;8.10;3.83;;;;;;;20.94;59.75;101580.25;5095020;28;20211;-71
2021/08/10 08:36:12;;;;;;;6.10;2.85;;;;;;;21.13;58.89;101587.72;5100720;28;20061;-71
2021/08/10 08:38:37;;;;;;;4.10;2.30;;;;;;;21.08;59.32;101595.19;5082171;28;20023;-71
2021/08/10 08:41:03;;;;;;;7.65;2.67;;;;;;;21.18;59.54;101587.41;5100513;28;20016;-71
2021/08/10 08:43:28;;;;;;;3.53;1.77;;;;;;;21.15;58.78;101590.28;5060865;28;20032;-71
2021/08/10 08:45:53;;;;;;;6.15;2.45;;;;;;;20.81;59.91;101595.38;5099848;28;20046;-70
2021/08/10 08:48:19;;;;;;;7.00;2.50;;;;;;;21.06;59.08;101595.28;5091487;28;20039;-71
2021/08/10 08:50:45;;;;;;;5.43;2.60;;;;;;;21.05;59.34;101598.09;5063688;28;20150;-71
2021/08/10 08:53:12;;;;;;;7.97;2.90;;;;;;;21.18;59.09;101595.38;5074971;28;20032;-71
2021/08/10 08:55:37;;;;;;;8.10;2.47;;;;;;;21.66;57.21;101595.34;5094862;28;20243;-71
2021/08/10 08:58:03;;;;;;;3.38;2.13;;;;;;;21.69;57.39;101592.47;5074081;28;20044;-71
2021/08/10 09:00:28;;;;;;;7.40;2.65;;;;;;;21.61;57.56;101600.19;5096767;28;20059;-71
2021/08/10 09:02:54;;;;;;;10.20;2.65;;;;;;;21.60;57.83;101610.00;5076301;28;20032;-69
2021/08/10 09:05:19;;;;;;;6.10;2.50;;;;;;;21.32;59.21;101602.34;5094015;28;20261;-71
2021/08/10 09:07:45;;;;;;;1.98;1.65;;;;;;;21.14;59.78;101609.88;5044393;28;20027;-71
2021/08/10 09:10:15;;;;;;;7.55;2.97;;;;;;;21.04;60.05;101604.38;5061942;28;20036;-71
2021/08/10 09:12:53;;;;;;;4.18;1.95;;;;;;;21.40;58.78;101611.47;5077110;28;20038;-71
2021/08/10 09:15:37;;;;;;;8.05;3.00;;;;;;;21.63;58.39;101612.44;5078745;28;20075;-71
2021/08/10 09:18:16;;;;;;;5.63;2.05;;;;;;;21.58;58.30;101608.44;5079850;28;20020;-72
2021/08/10 09:20:57;;;;;;;3.67;2.35;;;;;;;21.65;58.25;101610.50;5079471;28;20294;-71
2021/08/10 09:23:51;;;;;;;5.13;2.08;;;;;;;22.03;57.09;101612.06;5063044;28;20071;-72
2021/08/10 09:26:38;;;;;;;7.05;3.03;;;;;;;22.17;57.33;101610.97;5076051;28;20055;-72
2021/08/10 09:29:03;;;;;;;4.47;2.53;;;;;;;21.74;58.13;101608.97;5076112;28;20050;-73
2021/08/10 09:31:37;;;;;;;6.90;2.28;;;;;;;21.44;58.78;101614.75;5078267;28;20370;-72
2021/08/10 09:34:17;;;;;;;7.97;2.30;;;;;;;21.41;58.94;101614.97;5079004;28;20029;-72
2021/08/10 09:36:42;;;;;;;5.38;2.97;;;;;;;21.28;59.33;101618.56;5075928;28;20032;-72
2021/08/10 09:39:08;;;;;;;5.38;3.20;;;;;;;21.29;59.17;101620.25;5084529;28;20081;-72
2021/08/10 09:41:33;;;;;;;7.18;2.85;;;;;;;21.59;58.08;101620.78;5034835;28;20270;-72
2021/08/10 09:44:13;;;;;;;10.57;3.30;;;;;;;22.12;56.51;101607.84;5067767;28;20035;-72
2021/08/10 09:46:46;;;;;;;10.65;3.33;;;;;;;22.87;54.21;101610.91;5073456;28;20041;-72
2021/08/10 09:49:11;;;;;;;13.48;3.78;;;;;;;22.67;54.23;101621.38;5059602;28;20036;-72
2021/08/10 09:51:42;;;;;;;12.30;3.33;;;;;;;21.53;57.44;101616.75;5086806;28;20320;-72
2021/08/10 09:54:10;;;;;;;9.48;3.20;;;;;;;21.45;57.83;101617.34;5066973;28;20239;-72
2021/08/10 09:56:39;;;;;;;10.88;3.33;;;;;;;22.05;56.16;101623.47;5070520;28;20036;-71
2021/08/10 09:59:04;;;;;;;13.82;3.58;;;;;;;22.60;53.91;101621.00;5078032;28;20330;-72
2021/08/10 10:01:31;;;;;;;6.43;3.47;;;;;;;23.10;52.57;101617.94;5091137;28;20046;-72
2021/08/10 10:04:09;;;;;;;19.02;7.88;;;;;;;23.38;51.89;101611.16;5072567;28;20059;-72
2021/08/10 10:06:34;;;;;;;;;;;;;;;23.60;51.05;101620.06;5090282;28;20271;-72
2021/08/10 10:09:00;;;;;;;10.27;4.13;;;;;;;23.96;50.30;101609.94;5090400;28;19915;-71
2021/08/10 10:11:25;;;;;;;8.60;3.70;;;;;;;22.74;53.63;101619.03;5070332;28;20278;-70
2021/08/10 10:13:51;;;;;;;15.57;8.27;;;;;;;23.58;51.03;101614.84;5059574;28;20339;-70
2021/08/10 10:16:16;;;;;;;13.93;7.05;;;;;;;22.89;51.98;101616.97;5086429;28;20093;-70
2021/08/10 10:18:42;;;;;;;13.93;7.78;;;;;;;22.38;53.95;101613.00;5059935;28;20050;-70
2021/08/10 10:21:07;;;;;;;10.10;2.83;;;;;;;21.23;57.19;101619.88;5054600;28;20113;-70
2021/08/10 10:23:32;;;;;;;6.45;2.90;;;;;;;21.07;57.08;101617.47;5058704;28;20081;-70
2021/08/10 10:26:00;;;;;;;10.93;3.22;;;;;;;21.06;56.78;101619.25;5087813;28;20227;-70
2021/08/10 10:28:25;;;;;;;13.45;3.30;;;;;;;23.39;52.04;101617.34;5085665;28;20032;-70
2021/08/10 10:30:51;;;;;;;8.88;3.40;;;;;;;23.05;51.38;101622.81;5069192;28;20054;-70
2021/08/10 10:33:16;;;;;;;12.13;6.40;;;;;;;23.37;50.98;101616.63;5061842;28;20207;-70
2021/08/10 10:35:42;;;;;;;19.88;7.60;;;;;;;24.32;48.37;101621.13;5059288;28;20034;-70
2021/08/10 10:38:08;;;;;;;11.32;3.13;;;;;;;23.58;50.31;101606.81;5088637;28;20300;-70
2021/08/10 10:40:33;;;;;;;18.60;8.65;;;;;;;24.42;49.26;101619.34;5054475;28;20085;-70
2021/08/10 10:42:58;;;;;;;15.43;8.05;;;;;;;24.81;48.18;101619.53;5071031;28;20308;-70
2021/08/10 10:45:38;;;;;;;14.30;10.35;;;;;;;23.99;49.99;101612.34;5062749;28;20028;-70
2021/08/10 10:48:29;;;;;;;12.43;8.38;;;;;;;23.55;50.79;101612.41;5071122;28;20035;-70
2021/08/10 10:51:15;;;;;;;6.85;2.72;;;;;;;23.39;50.66;101614.69;5035466;28;20347;-70
2021/08/10 10:53:41;;;;;;;5.65;4.20;;;;;;;22.11;53.65;101630.16;5088118;28;20055;-70
2021/08/10 10:56:29;;;;;;;4.47;2.53;;;;;;;22.95;51.75;101619.16;5068446;28;20043;-71
2021/08/10 10:58:55;;;;;;;5.88;4.63;;;;;;;23.60;50.36;101622.75;5068820;28;20123;-71
2021/08/10 11:01:21;;;;;;;6.88;2.83;;;;;;;23.15;51.60;101621.06;5069506;28;20438;-71
2021/08/10 11:04:06;;;;;;;7.90;3.22;;;;;;;22.98;52.63;101616.22;5086925;28;20239;-71
2021/08/10 11:06:32;;;;;;;6.57;2.75;;;;;;;22.05;54.76;101627.97;5066238;28;20346;-71
2021/08/10 11:09:02;;;;;;;7.38;2.60;;;;;;;21.60;55.60;101631.31;5071420;28;20032;-71
2021/08/10 11:11:43;;;;;;;3.90;2.63;;;;;;;21.52;54.86;101632.84;5066733;28;20224;-71
2021/08/10 11:14:35;;;;;;;5.25;2.47;;;;;;;21.44;55.20;101622.75;5097101;28;20104;-71
2021/08/10 11:17:12;;;;;;;7.63;2.72;;;;;;;21.29;55.89;101622.06;5072972;28;20082;-71
2021/08/10 11:19:42;;;;;;;4.85;2.53;;;;;;;21.45;55.73;101622.66;5060316;28;20028;-71
2021/08/10 11:22:17;;;;;;;12.07;3.53;;;;;;;21.87;54.58;101621.38;5058338;28;20065;-71
2021/08/10 11:24:44;;;;;;;7.72;2.40;;;;;;;21.39;56.17;101620.44;5094090;28;20056;-71
2021/08/10 11:27:34;;;;;;;4.97;2.10;;;;;;;21.16;56.84;101618.63;5074769;28;20031;-71
2021/08/10 11:30:00;;;;;;;8.02;2.90;;;;;;;21.52;55.73;101627.53;5092427;28;20032;-71